Check out our new PWSWeather beta!
PWSweather.com
Personal Weather Stations
Station Observations
PALLARSJSA
Casa Cota, Sant Marti De CanalsES 25518

Casa CotaSant Marti De CanalsES 25518

Lat: 42.22577, Lon: 0.9898

Elevation: 2130

Station Type: Sainlogic WS3500

http://www.atmos.cat

Latest ConditionsUpdated 8:16:00 AM GMT+01:01 Friday, Feb 21, 2020
Currently Today's Max Today's Min Today's Average
Temperature 35.2°F1.8°C 43.2°F6.2°C 35.2°F1.8°C 39.7°F4.3°C
Dew Point 31.5°F-0.3°C 34.7°F1.5°C 31.5°F-0.3°C 33.4°F0.8°C
Winds Calm Calm 1.1 mph -1.8 kmh - - 0.1 mph 0.2 kmh
Wind Gusts -- 1.1 mph1.8 kmh - -
Humidity 86% 86% 71% 78%
Pressure 30.34 in1027.4 mb 30.34 in1027.4 mb 30.27 in1025.1 mb -
Hour Temp Dew Point Humidity Winds Wind Gusts Pressure Precip Precip Rate Daily Precip Total
08:16 AM 35.2°F1.8°C 31.5°F-0.3°C 86% Calm Calm -- 30.34 in1027.4 mb 0.00 in0.0 mm 0.00 in0.0 mm 0.00 in0.0 mm
08:10 AM 35.4°F1.9°C 31.6°F-0.2°C 86% Calm Calm -- 30.33 in1027.1 mb 0.00 in0.0 mm 0.00 in0.0 mm 0.00 in0.0 mm
08:05 AM 36.0°F2.2°C 31.8°F-0.1°C 85% Calm Calm -- 30.34 in1027.4 mb 0.00 in0.0 mm 0.00 in0.0 mm 0.00 in0.0 mm
08:00 AM 36.7°F2.6°C 32.0°F0.0°C 83% Calm Calm -- 30.33 in1027.1 mb 0.00 in0.0 mm 0.00 in0.0 mm 0.00 in0.0 mm
07:54 AM 37.0°F2.8°C 32.0°F0.0°C 82% Calm Calm -- 30.32 in1026.8 mb 0.00 in0.0 mm 0.00 in0.0 mm 0.00 in0.0 mm
07:49 AM 36.9°F2.7°C 31.8°F-0.1°C 82% Calm Calm -- 30.32 in1026.8 mb 0.00 in0.0 mm 0.00 in0.0 mm 0.00 in0.0 mm
07:44 AM 36.9°F2.7°C 31.8°F-0.1°C 82% Calm Calm -- 30.32 in1026.8 mb 0.00 in0.0 mm 0.00 in0.0 mm 0.00 in0.0 mm
07:38 AM 36.7°F2.6°C 31.6°F-0.2°C 82% Calm Calm -- 30.32 in1026.8 mb 0.00 in0.0 mm 0.00 in0.0 mm 0.00 in0.0 mm
07:33 AM 37.0°F2.8°C 31.8°F-0.1°C 81% Calm Calm -- 30.32 in1026.8 mb 0.00 in0.0 mm 0.00 in0.0 mm 0.00 in0.0 mm
07:28 AM 36.7°F2.6°C 31.6°F-0.2°C 82% Calm Calm -- 30.32 in1026.8 mb 0.00 in0.0 mm 0.00 in0.0 mm 0.00 in0.0 mm
07:22 AM 37.0°F2.8°C 32.0°F0.0°C 82% Calm Calm -- 30.32 in1026.8 mb 0.00 in0.0 mm 0.00 in0.0 mm 0.00 in0.0 mm
07:17 AM 37.6°F3.1°C 32.4°F0.2°C 81% Calm Calm -- 30.31 in1026.4 mb 0.00 in0.0 mm 0.00 in0.0 mm 0.00 in0.0 mm
07:12 AM 37.0°F2.8°C 32.0°F0.0°C 82% Calm Calm -- 30.32 in1026.8 mb 0.00 in0.0 mm 0.00 in0.0 mm 0.00 in0.0 mm
07:06 AM 36.7°F2.6°C 32.0°F0.0°C 83% Calm Calm -- 30.31 in1026.4 mb 0.00 in0.0 mm 0.00 in0.0 mm 0.00 in0.0 mm
07:01 AM 37.2°F2.9°C 32.5°F0.3°C 83% Calm Calm -- 30.31 in1026.4 mb 0.00 in0.0 mm 0.00 in0.0 mm 0.00 in0.0 mm
06:56 AM 37.2°F2.9°C 32.5°F0.3°C 83% Calm Calm -- 30.31 in1026.4 mb 0.00 in0.0 mm 0.00 in0.0 mm 0.00 in0.0 mm
06:50 AM 37.2°F2.9°C 32.7°F0.4°C 84% Calm Calm -- 30.31 in1026.4 mb 0.00 in0.0 mm 0.00 in0.0 mm 0.00 in0.0 mm
06:45 AM 37.2°F2.9°C 32.5°F0.3°C 83% Calm Calm -- 30.31 in1026.4 mb 0.00 in0.0 mm 0.00 in0.0 mm 0.00 in0.0 mm
06:40 AM 37.2°F2.9°C 32.5°F0.3°C 83% Calm Calm -- 30.31 in1026.4 mb 0.00 in0.0 mm 0.00 in0.0 mm 0.00 in0.0 mm
06:34 AM 37.2°F2.9°C 32.2°F0.1°C 82% Calm Calm -- 30.30 in1026.1 mb 0.00 in0.0 mm 0.00 in0.0 mm 0.00 in0.0 mm
06:29 AM 37.8°F3.2°C 32.7°F0.4°C 82% Calm Calm -- 30.31 in1026.4 mb 0.00 in0.0 mm 0.00 in0.0 mm 0.00 in0.0 mm
06:24 AM 37.8°F3.2°C 32.7°F0.4°C 82% Calm Calm -- 30.31 in1026.4 mb 0.00 in0.0 mm 0.00 in0.0 mm 0.00 in0.0 mm
06:18 AM 38.1°F3.4°C 32.7°F0.4°C 81% 0.7 mph WNW1.1 kmh WNW 1.1 mph1.8 kmh 30.30 in1026.1 mb 0.00 in0.0 mm 0.00 in0.0 mm 0.00 in0.0 mm
06:12 AM 38.7°F3.7°C 32.7°F0.4°C 79% Calm Calm -- 30.30 in1026.1 mb 0.00 in0.0 mm 0.00 in0.0 mm 0.00 in0.0 mm
06:07 AM 38.5°F3.6°C 32.5°F0.3°C 79% Calm Calm -- 30.30 in1026.1 mb 0.00 in0.0 mm 0.00 in0.0 mm 0.00 in0.0 mm
06:01 AM 38.8°F3.8°C 33.3°F0.7°C 80% Calm Calm -- 30.31 in1026.4 mb 0.00 in0.0 mm 0.00 in0.0 mm 0.00 in0.0 mm
05:56 AM 38.3°F3.5°C 32.7°F0.4°C 80% 0.9 mph WNW1.4 kmh WNW 1.1 mph1.8 kmh 30.31 in1026.4 mb 0.00 in0.0 mm 0.00 in0.0 mm 0.00 in0.0 mm
05:50 AM 38.5°F3.6°C 33.1°F0.6°C 81% Calm Calm -- 30.31 in1026.4 mb 0.00 in0.0 mm 0.00 in0.0 mm 0.00 in0.0 mm
05:45 AM 38.8°F3.8°C 33.3°F0.7°C 80% Calm Calm -- 30.30 in1026.1 mb 0.00 in0.0 mm 0.00 in0.0 mm 0.00 in0.0 mm
05:39 AM 38.5°F3.6°C 32.9°F0.5°C 80% 0.4 mph WNW0.6 kmh WNW 1.1 mph1.8 kmh 30.30 in1026.1 mb 0.00 in0.0 mm 0.00 in0.0 mm 0.00 in0.0 mm
05:34 AM 38.3°F3.5°C 32.9°F0.5°C 81% Calm Calm -- 30.30 in1026.1 mb 0.00 in0.0 mm 0.00 in0.0 mm 0.00 in0.0 mm
05:29 AM 38.5°F3.6°C 33.1°F0.6°C 81% Calm Calm -- 30.30 in1026.1 mb 0.00 in0.0 mm 0.00 in0.0 mm 0.00 in0.0 mm
05:23 AM 38.1°F3.4°C 32.7°F0.4°C 81% Calm Calm -- 30.31 in1026.4 mb 0.00 in0.0 mm 0.00 in0.0 mm 0.00 in0.0 mm
05:18 AM 38.3°F3.5°C 32.9°F0.5°C 81% Calm Calm -- 30.31 in1026.4 mb 0.00 in0.0 mm 0.00 in0.0 mm 0.00 in0.0 mm
05:13 AM 38.3°F3.5°C 32.9°F0.5°C 81% Calm Calm -- 30.30 in1026.1 mb 0.00 in0.0 mm 0.00 in0.0 mm 0.00 in0.0 mm
05:07 AM 38.8°F3.8°C 33.3°F0.7°C 80% 0.9 mph WNW1.4 kmh WNW 1.1 mph1.8 kmh 30.31 in1026.4 mb 0.00 in0.0 mm 0.00 in0.0 mm 0.00 in0.0 mm
05:02 AM 39.2°F4.0°C 33.3°F0.7°C 79% Calm Calm -- 30.31 in1026.4 mb 0.00 in0.0 mm 0.00 in0.0 mm 0.00 in0.0 mm
04:56 AM 39.0°F3.9°C 33.1°F0.6°C 79% 0.7 mph WNW1.1 kmh WNW 1.1 mph1.8 kmh 30.31 in1026.4 mb 0.00 in0.0 mm 0.00 in0.0 mm 0.00 in0.0 mm
04:51 AM 39.4°F4.1°C 33.4°F0.8°C 79% Calm Calm -- 30.30 in1026.1 mb 0.00 in0.0 mm 0.00 in0.0 mm 0.00 in0.0 mm
04:46 AM 39.0°F3.9°C 33.4°F0.8°C 80% 0.9 mph WNW1.4 kmh WNW 1.1 mph1.8 kmh 30.30 in1026.1 mb 0.00 in0.0 mm 0.00 in0.0 mm 0.00 in0.0 mm
04:40 AM 39.0°F3.9°C 33.4°F0.8°C 80% Calm Calm -- 30.30 in1026.1 mb 0.00 in0.0 mm 0.00 in0.0 mm 0.00 in0.0 mm
04:34 AM 39.2°F4.0°C 33.6°F0.9°C 80% Calm Calm -- 30.30 in1026.1 mb 0.00 in0.0 mm 0.00 in0.0 mm 0.00 in0.0 mm
04:29 AM 39.9°F4.4°C 33.6°F0.9°C 78% Calm Calm -- 30.30 in1026.1 mb 0.00 in0.0 mm 0.00 in0.0 mm 0.00 in0.0 mm
04:24 AM 40.3°F4.6°C 33.6°F0.9°C 77% Calm Calm -- 30.30 in1026.1 mb 0.00 in0.0 mm 0.00 in0.0 mm 0.00 in0.0 mm
04:18 AM 40.5°F4.7°C 33.8°F1.0°C 77% Calm Calm -- 30.30 in1026.1 mb 0.00 in0.0 mm 0.00 in0.0 mm 0.00 in0.0 mm
04:13 AM 39.7°F4.3°C 33.4°F0.8°C 78% Calm Calm -- 30.31 in1026.4 mb 0.00 in0.0 mm 0.00 in0.0 mm 0.00 in0.0 mm
04:07 AM 39.6°F4.2°C 33.6°F0.9°C 79% Calm Calm -- 30.30 in1026.1 mb 0.00 in0.0 mm 0.00 in0.0 mm 0.00 in0.0 mm
04:02 AM 39.9°F4.4°C 33.6°F0.9°C 78% Calm Calm -- 30.30 in1026.1 mb 0.00 in0.0 mm 0.00 in0.0 mm 0.00 in0.0 mm
03:57 AM 39.7°F4.3°C 33.8°F1.0°C 79% 1.1 mph WNW1.8 kmh WNW 1.1 mph1.8 kmh 30.31 in1026.4 mb 0.00 in0.0 mm 0.00 in0.0 mm 0.00 in0.0 mm
03:51 AM 39.4°F4.1°C 33.4°F0.8°C 79% Calm Calm -- 30.31 in1026.4 mb 0.00 in0.0 mm 0.00 in0.0 mm 0.00 in0.0 mm
03:46 AM 39.4°F4.1°C 33.8°F1.0°C 80% Calm Calm -- 30.30 in1026.1 mb 0.00 in0.0 mm 0.00 in0.0 mm 0.00 in0.0 mm
03:40 AM 39.7°F4.3°C 33.4°F0.8°C 78% 0.2 mph WNW0.3 kmh WNW 1.1 mph1.8 kmh 30.30 in1026.1 mb 0.00 in0.0 mm 0.00 in0.0 mm 0.00 in0.0 mm
03:35 AM 40.5°F4.7°C 34.2°F1.2°C 78% Calm Calm -- 30.30 in1026.1 mb 0.00 in0.0 mm 0.00 in0.0 mm 0.00 in0.0 mm
03:30 AM 40.3°F4.6°C 33.6°F0.9°C 77% 0.7 mph WNW1.1 kmh WNW 1.1 mph1.8 kmh 30.30 in1026.1 mb 0.00 in0.0 mm 0.00 in0.0 mm 0.00 in0.0 mm
03:24 AM 40.3°F4.6°C 34.0°F1.1°C 78% Calm Calm -- 30.31 in1026.4 mb 0.00 in0.0 mm 0.00 in0.0 mm 0.00 in0.0 mm
03:19 AM 40.8°F4.9°C 33.8°F1.0°C 76% 1.1 mph WNW1.8 kmh WNW 1.1 mph1.8 kmh 30.30 in1026.1 mb 0.00 in0.0 mm 0.00 in0.0 mm 0.00 in0.0 mm
03:13 AM 40.3°F4.6°C 33.6°F0.9°C 77% Calm Calm -- 30.30 in1026.1 mb 0.00 in0.0 mm 0.00 in0.0 mm 0.00 in0.0 mm
03:08 AM 40.1°F4.5°C 34.2°F1.2°C 79% 0.2 mph WNW0.3 kmh WNW 1.1 mph1.8 kmh 30.31 in1026.4 mb 0.00 in0.0 mm 0.00 in0.0 mm 0.00 in0.0 mm
03:03 AM 40.3°F4.6°C 34.0°F1.1°C 78% Calm Calm -- 30.30 in1026.1 mb 0.00 in0.0 mm 0.00 in0.0 mm 0.00 in0.0 mm
02:57 AM 40.6°F4.8°C 34.0°F1.1°C 77% Calm Calm -- 30.31 in1026.4 mb 0.00 in0.0 mm 0.00 in0.0 mm 0.00 in0.0 mm
02:52 AM 41.0°F5.0°C 34.0°F1.1°C 76% Calm Calm -- 30.30 in1026.1 mb 0.00 in0.0 mm 0.00 in0.0 mm 0.00 in0.0 mm
02:46 AM 40.6°F4.8°C 34.0°F1.1°C 77% Calm Calm -- 30.30 in1026.1 mb 0.00 in0.0 mm 0.00 in0.0 mm 0.00 in0.0 mm
02:41 AM 40.5°F4.7°C 33.8°F1.0°C 77% 0.9 mph WNW1.4 kmh WNW 1.1 mph1.8 kmh 30.29 in1025.7 mb 0.00 in0.0 mm 0.00 in0.0 mm 0.00 in0.0 mm
02:35 AM 40.8°F4.9°C 33.8°F1.0°C 76% Calm Calm -- 30.30 in1026.1 mb 0.00 in0.0 mm 0.00 in0.0 mm 0.00 in0.0 mm
02:30 AM 40.6°F4.8°C 34.0°F1.1°C 77% Calm Calm -- 30.30 in1026.1 mb 0.00 in0.0 mm 0.00 in0.0 mm 0.00 in0.0 mm
02:25 AM 40.6°F4.8°C 34.0°F1.1°C 77% Calm Calm -- 30.30 in1026.1 mb 0.00 in0.0 mm 0.00 in0.0 mm 0.00 in0.0 mm
02:19 AM 40.5°F4.7°C 34.2°F1.2°C 78% Calm Calm -- 30.30 in1026.1 mb 0.00 in0.0 mm 0.00 in0.0 mm 0.00 in0.0 mm
02:14 AM 40.8°F4.9°C 34.2°F1.2°C 77% 0.2 mph WNW0.3 kmh WNW 1.1 mph1.8 kmh 30.30 in1026.1 mb 0.00 in0.0 mm 0.00 in0.0 mm 0.00 in0.0 mm
02:09 AM 40.6°F4.8°C 34.0°F1.1°C 77% Calm Calm -- 30.30 in1026.1 mb 0.00 in0.0 mm 0.00 in0.0 mm 0.00 in0.0 mm
02:03 AM 41.0°F5.0°C 34.0°F1.1°C 76% Calm Calm -- 30.30 in1026.1 mb 0.00 in0.0 mm 0.00 in0.0 mm 0.00 in0.0 mm
01:58 AM 41.7°F5.4°C 34.3°F1.3°C 75% Calm Calm -- 30.30 in1026.1 mb 0.00 in0.0 mm 0.00 in0.0 mm 0.00 in0.0 mm
01:53 AM 42.1°F5.6°C 34.3°F1.3°C 74% Calm Calm -- 30.29 in1025.7 mb 0.00 in0.0 mm 0.00 in0.0 mm 0.00 in0.0 mm
01:47 AM 41.5°F5.3°C 34.2°F1.2°C 75% Calm Calm -- 30.29 in1025.7 mb 0.00 in0.0 mm 0.00 in0.0 mm 0.00 in0.0 mm
01:42 AM 41.9°F5.5°C 34.5°F1.4°C 75% Calm Calm -- 30.29 in1025.7 mb 0.00 in0.0 mm 0.00 in0.0 mm 0.00 in0.0 mm
01:36 AM 42.1°F5.6°C 34.3°F1.3°C 74% Calm Calm -- 30.30 in1026.1 mb 0.00 in0.0 mm 0.00 in0.0 mm 0.00 in0.0 mm
01:31 AM 42.3°F5.7°C 34.5°F1.4°C 74% Calm Calm -- 30.29 in1025.7 mb 0.00 in0.0 mm 0.00 in0.0 mm 0.00 in0.0 mm
01:26 AM 41.5°F5.3°C 34.2°F1.2°C 75% Calm Calm -- 30.29 in1025.7 mb 0.00 in0.0 mm 0.00 in0.0 mm 0.00 in0.0 mm
01:20 AM 41.7°F5.4°C 34.3°F1.3°C 75% Calm Calm -- 30.29 in1025.7 mb 0.00 in0.0 mm 0.00 in0.0 mm 0.00 in0.0 mm
01:15 AM 42.1°F5.6°C 34.7°F1.5°C 75% 0.7 mph WNW1.1 kmh WNW 1.1 mph1.8 kmh 30.28 in1025.4 mb 0.00 in0.0 mm 0.00 in0.0 mm 0.00 in0.0 mm
01:10 AM 42.3°F5.7°C 34.5°F1.4°C 74% 0.2 mph WNW0.3 kmh WNW 1.1 mph1.8 kmh 30.28 in1025.4 mb 0.00 in0.0 mm 0.00 in0.0 mm 0.00 in0.0 mm
01:04 AM 42.4°F5.8°C 34.7°F1.5°C 74% Calm Calm -- 30.29 in1025.7 mb 0.00 in0.0 mm 0.00 in0.0 mm 0.00 in0.0 mm
12:59 AM 42.6°F5.9°C 34.5°F1.4°C 73% Calm Calm -- 30.28 in1025.4 mb 0.00 in0.0 mm 0.00 in0.0 mm 0.00 in0.0 mm
12:53 AM 42.4°F5.8°C 34.5°F1.4°C 73% Calm Calm -- 30.29 in1025.7 mb 0.00 in0.0 mm 0.00 in0.0 mm 0.00 in0.0 mm
12:48 AM 42.6°F5.9°C 34.5°F1.4°C 73% Calm Calm -- 30.28 in1025.4 mb 0.00 in0.0 mm 0.00 in0.0 mm 0.00 in0.0 mm
12:43 AM 42.8°F6.0°C 34.7°F1.5°C 73% Calm Calm -- 30.28 in1025.4 mb 0.00 in0.0 mm 0.00 in0.0 mm 0.00 in0.0 mm
12:37 AM 42.8°F6.0°C 34.7°F1.5°C 73% Calm Calm -- 30.28 in1025.4 mb 0.00 in0.0 mm 0.00 in0.0 mm 0.00 in0.0 mm
12:32 AM 42.8°F6.0°C 34.7°F1.5°C 73% Calm Calm -- 30.29 in1025.7 mb 0.00 in0.0 mm 0.00 in0.0 mm 0.00 in0.0 mm
12:27 AM 42.8°F6.0°C 34.7°F1.5°C 73% Calm Calm -- 30.28 in1025.4 mb 0.00 in0.0 mm 0.00 in0.0 mm 0.00 in0.0 mm
12:21 AM 42.8°F6.0°C 34.3°F1.3°C 72% Calm Calm -- 30.28 in1025.4 mb 0.00 in0.0 mm 0.00 in0.0 mm 0.00 in0.0 mm
12:16 AM 43.2°F6.2°C 34.7°F1.5°C 72% Calm Calm -- 30.27 in1025.1 mb 0.00 in0.0 mm 0.00 in0.0 mm 0.00 in0.0 mm
12:10 AM 42.8°F6.0°C 34.7°F1.5°C 73% Calm Calm -- 30.27 in1025.1 mb 0.00 in0.0 mm 0.00 in0.0 mm 0.00 in0.0 mm
12:05 AM 42.8°F6.0°C 34.3°F1.3°C 72% Calm Calm -- 30.27 in1025.1 mb 0.00 in0.0 mm 0.00 in0.0 mm 0.00 in0.0 mm
12:00 AM 43.2°F6.2°C 34.3°F1.3°C 71% Calm Calm -- 30.27 in1025.1 mb 0.00 in0.0 mm 0.00 in0.0 mm 0.00 in0.0 mm